sensor_id;sensor_type;location;lat;lon;timestamp;P1;durP1;ratioP1;P2;durP2;ratioP2
15077;SDS011;7638;49.760;8.646;2023-09-07T00:01:46;5.17;;;2.83;;
15077;SDS011;7638;49.760;8.646;2023-09-07T00:04:12;4.33;;;1.90;;
15077;SDS011;7638;49.760;8.646;2023-09-07T00:06:39;6.63;;;2.47;;
15077;SDS011;7638;49.760;8.646;2023-09-07T00:09:08;3.60;;;2.23;;
15077;SDS011;7638;49.760;8.646;2023-09-07T00:11:36;4.23;;;2.60;;
15077;SDS011;7638;49.760;8.646;2023-09-07T00:14:02;3.07;;;2.17;;
15077;SDS011;7638;49.760;8.646;2023-09-07T00:16:28;2.50;;;2.17;;
15077;SDS011;7638;49.760;8.646;2023-09-07T00:18:59;4.80;;;2.00;;
15077;SDS011;7638;49.760;8.646;2023-09-07T00:21:25;5.93;;;2.40;;
15077;SDS011;7638;49.760;8.646;2023-09-07T00:23:51;3.57;;;2.40;;
15077;SDS011;7638;49.760;8.646;2023-09-07T00:26:17;3.90;;;2.43;;
15077;SDS011;7638;49.760;8.646;2023-09-07T00:28:43;4.33;;;2.20;;
15077;SDS011;7638;49.760;8.646;2023-09-07T00:31:09;2.30;;;2.10;;
15077;SDS011;7638;49.760;8.646;2023-09-07T00:33:35;2.80;;;2.53;;
15077;SDS011;7638;49.760;8.646;2023-09-07T00:36:02;2.73;;;1.97;;
15077;SDS011;7638;49.760;8.646;2023-09-07T00:38:28;2.80;;;2.27;;
15077;SDS011;7638;49.760;8.646;2023-09-07T00:40:54;3.00;;;2.40;;
15077;SDS011;7638;49.760;8.646;2023-09-07T00:43:20;2.60;;;2.20;;
15077;SDS011;7638;49.760;8.646;2023-09-07T00:45:46;3.10;;;2.37;;
15077;SDS011;7638;49.760;8.646;2023-09-07T00:48:13;3.87;;;2.03;;
15077;SDS011;7638;49.760;8.646;2023-09-07T00:50:40;3.50;;;2.43;;
15077;SDS011;7638;49.760;8.646;2023-09-07T00:53:07;7.37;;;2.20;;
15077;SDS011;7638;49.760;8.646;2023-09-07T00:55:33;2.70;;;1.90;;
15077;SDS011;7638;49.760;8.646;2023-09-07T00:58:00;2.83;;;2.53;;
15077;SDS011;7638;49.760;8.646;2023-09-07T01:00:28;4.20;;;2.30;;
15077;SDS011;7638;49.760;8.646;2023-09-07T01:02:54;2.40;;;2.03;;
15077;SDS011;7638;49.760;8.646;2023-09-07T01:05:21;5.37;;;2.13;;
15077;SDS011;7638;49.760;8.646;2023-09-07T01:07:52;4.60;;;2.53;;
15077;SDS011;7638;49.760;8.646;2023-09-07T01:10:19;2.23;;;2.03;;
15077;SDS011;7638;49.760;8.646;2023-09-07T01:12:47;4.30;;;2.57;;
15077;SDS011;7638;49.760;8.646;2023-09-07T01:15:13;2.60;;;2.40;;
15077;SDS011;7638;49.760;8.646;2023-09-07T01:17:39;3.00;;;2.70;;
15077;SDS011;7638;49.760;8.646;2023-09-07T01:20:06;2.90;;;2.40;;
15077;SDS011;7638;49.760;8.646;2023-09-07T01:22:34;2.87;;;2.27;;
15077;SDS011;7638;49.760;8.646;2023-09-07T01:25:01;5.13;;;2.63;;
15077;SDS011;7638;49.760;8.646;2023-09-07T01:27:28;2.60;;;2.37;;
15077;SDS011;7638;49.760;8.646;2023-09-07T01:29:54;2.57;;;2.10;;
15077;SDS011;7638;49.760;8.646;2023-09-07T01:32:20;2.70;;;2.03;;
15077;SDS011;7638;49.760;8.646;2023-09-07T01:34:46;2.40;;;2.20;;
15077;SDS011;7638;49.760;8.646;2023-09-07T01:37:12;4.23;;;2.73;;
15077;SDS011;7638;49.760;8.646;2023-09-07T01:39:38;3.23;;;2.10;;
15077;SDS011;7638;49.760;8.646;2023-09-07T01:42:04;4.07;;;2.43;;
15077;SDS011;7638;49.760;8.646;2023-09-07T01:44:30;4.97;;;2.23;;
15077;SDS011;7638;49.760;8.646;2023-09-07T01:46:56;3.20;;;2.10;;
15077;SDS011;7638;49.760;8.646;2023-09-07T01:49:22;4.30;;;2.20;;
15077;SDS011;7638;49.760;8.646;2023-09-07T01:51:50;2.67;;;2.27;;
15077;SDS011;7638;49.760;8.646;2023-09-07T01:54:17;3.83;;;2.10;;
15077;SDS011;7638;49.760;8.646;2023-09-07T01:56:43;4.33;;;2.30;;
15077;SDS011;7638;49.760;8.646;2023-09-07T01:59:09;2.10;;;1.87;;
15077;SDS011;7638;49.760;8.646;2023-09-07T02:01:35;2.70;;;2.20;;
15077;SDS011;7638;49.760;8.646;2023-09-07T02:04:02;2.43;;;2.20;;
15077;SDS011;7638;49.760;8.646;2023-09-07T02:06:28;2.27;;;2.07;;
15077;SDS011;7638;49.760;8.646;2023-09-07T02:08:54;2.47;;;1.93;;
15077;SDS011;7638;49.760;8.646;2023-09-07T02:11:20;2.60;;;2.33;;
15077;SDS011;7638;49.760;8.646;2023-09-07T02:13:46;2.53;;;2.33;;
15077;SDS011;7638;49.760;8.646;2023-09-07T02:16:13;2.60;;;2.00;;
15077;SDS011;7638;49.760;8.646;2023-09-07T02:18:39;2.83;;;2.50;;
15077;SDS011;7638;49.760;8.646;2023-09-07T02:21:08;3.97;;;2.60;;
15077;SDS011;7638;49.760;8.646;2023-09-07T02:23:34;3.90;;;2.50;;
15077;SDS011;7638;49.760;8.646;2023-09-07T02:26:02;5.03;;;3.03;;
15077;SDS011;7638;49.760;8.646;2023-09-07T02:28:29;3.70;;;2.27;;
15077;SDS011;7638;49.760;8.646;2023-09-07T02:30:55;2.53;;;2.33;;
15077;SDS011;7638;49.760;8.646;2023-09-07T02:33:27;3.03;;;2.53;;
15077;SDS011;7638;49.760;8.646;2023-09-07T02:35:53;6.20;;;2.40;;
15077;SDS011;7638;49.760;8.646;2023-09-07T02:38:19;2.53;;;2.10;;
15077;SDS011;7638;49.760;8.646;2023-09-07T02:40:45;4.57;;;2.53;;
15077;SDS011;7638;49.760;8.646;2023-09-07T02:43:11;4.50;;;2.27;;
15077;SDS011;7638;49.760;8.646;2023-09-07T02:45:37;4.27;;;2.40;;
15077;SDS011;7638;49.760;8.646;2023-09-07T02:48:04;3.03;;;2.73;;
15077;SDS011;7638;49.760;8.646;2023-09-07T02:50:31;4.00;;;2.70;;
15077;SDS011;7638;49.760;8.646;2023-09-07T02:52:58;2.83;;;2.20;;
15077;SDS011;7638;49.760;8.646;2023-09-07T02:55:25;4.50;;;2.77;;
15077;SDS011;7638;49.760;8.646;2023-09-07T02:57:50;3.63;;;2.67;;
15077;SDS011;7638;49.760;8.646;2023-09-07T03:00:16;4.77;;;2.50;;
15077;SDS011;7638;49.760;8.646;2023-09-07T03:02:43;4.50;;;2.17;;
15077;SDS011;7638;49.760;8.646;2023-09-07T03:05:09;5.87;;;2.97;;
15077;SDS011;7638;49.760;8.646;2023-09-07T03:07:35;3.37;;;2.43;;
15077;SDS011;7638;49.760;8.646;2023-09-07T03:10:01;3.77;;;2.63;;
15077;SDS011;7638;49.760;8.646;2023-09-07T03:12:27;3.53;;;2.60;;
15077;SDS011;7638;49.760;8.646;2023-09-07T03:14:53;4.27;;;2.70;;
15077;SDS011;7638;49.760;8.646;2023-09-07T03:17:19;3.27;;;2.57;;
15077;SDS011;7638;49.760;8.646;2023-09-07T03:19:46;2.73;;;2.17;;
15077;SDS011;7638;49.760;8.646;2023-09-07T03:22:12;2.90;;;2.50;;
15077;SDS011;7638;49.760;8.646;2023-09-07T03:24:38;6.40;;;3.03;;
15077;SDS011;7638;49.760;8.646;2023-09-07T03:27:04;2.13;;;1.93;;
15077;SDS011;7638;49.760;8.646;2023-09-07T03:29:30;5.60;;;2.50;;
15077;SDS011;7638;49.760;8.646;2023-09-07T03:31:58;5.43;;;2.83;;
15077;SDS011;7638;49.760;8.646;2023-09-07T03:34:25;3.13;;;2.20;;
15077;SDS011;7638;49.760;8.646;2023-09-07T03:36:51;5.37;;;4.10;;
15077;SDS011;7638;49.760;8.646;2023-09-07T03:39:17;4.53;;;2.80;;
15077;SDS011;7638;49.760;8.646;2023-09-07T03:41:43;2.83;;;2.57;;
15077;SDS011;7638;49.760;8.646;2023-09-07T03:44:09;2.90;;;2.60;;
15077;SDS011;7638;49.760;8.646;2023-09-07T03:46:36;11.40;;;3.07;;
15077;SDS011;7638;49.760;8.646;2023-09-07T03:49:02;2.80;;;2.50;;
15077;SDS011;7638;49.760;8.646;2023-09-07T03:51:28;3.23;;;2.70;;
15077;SDS011;7638;49.760;8.646;2023-09-07T03:53:54;2.83;;;2.53;;
15077;SDS011;7638;49.760;8.646;2023-09-07T03:56:20;3.70;;;2.60;;
15077;SDS011;7638;49.760;8.646;2023-09-07T03:58:46;3.00;;;2.50;;
15077;SDS011;7638;49.760;8.646;2023-09-07T04:01:12;3.93;;;2.80;;
15077;SDS011;7638;49.760;8.646;2023-09-07T04:03:39;2.63;;;2.40;;
15077;SDS011;7638;49.760;8.646;2023-09-07T04:06:08;3.37;;;2.33;;
15077;SDS011;7638;49.760;8.646;2023-09-07T04:08:34;2.80;;;2.50;;
15077;SDS011;7638;49.760;8.646;2023-09-07T04:11:06;3.10;;;2.80;;
15077;SDS011;7638;49.760;8.646;2023-09-07T04:13:32;2.67;;;2.37;;
15077;SDS011;7638;49.760;8.646;2023-09-07T04:15:58;7.40;;;3.10;;
15077;SDS011;7638;49.760;8.646;2023-09-07T04:18:24;2.67;;;2.47;;
15077;SDS011;7638;49.760;8.646;2023-09-07T04:20:50;3.07;;;2.53;;
15077;SDS011;7638;49.760;8.646;2023-09-07T04:23:16;9.03;;;3.20;;
15077;SDS011;7638;49.760;8.646;2023-09-07T04:25:42;4.77;;;3.20;;
15077;SDS011;7638;49.760;8.646;2023-09-07T04:28:08;5.77;;;2.80;;
15077;SDS011;7638;49.760;8.646;2023-09-07T04:30:38;2.50;;;2.30;;
15077;SDS011;7638;49.760;8.646;2023-09-07T04:33:09;2.30;;;2.10;;
15077;SDS011;7638;49.760;8.646;2023-09-07T04:35:36;3.00;;;2.70;;
15077;SDS011;7638;49.760;8.646;2023-09-07T04:38:02;4.17;;;2.50;;
15077;SDS011;7638;49.760;8.646;2023-09-07T04:40:28;4.50;;;2.67;;
15077;SDS011;7638;49.760;8.646;2023-09-07T04:42:54;7.23;;;2.80;;
15077;SDS011;7638;49.760;8.646;2023-09-07T04:45:20;3.60;;;2.87;;
15077;SDS011;7638;49.760;8.646;2023-09-07T04:47:46;7.17;;;3.00;;
15077;SDS011;7638;49.760;8.646;2023-09-07T04:50:12;6.50;;;3.23;;
15077;SDS011;7638;49.760;8.646;2023-09-07T04:52:38;4.83;;;2.70;;
15077;SDS011;7638;49.760;8.646;2023-09-07T04:55:04;3.27;;;2.80;;
15077;SDS011;7638;49.760;8.646;2023-09-07T04:57:30;3.40;;;2.73;;
15077;SDS011;7638;49.760;8.646;2023-09-07T04:59:56;3.07;;;2.53;;
15077;SDS011;7638;49.760;8.646;2023-09-07T05:02:22;2.90;;;2.60;;
15077;SDS011;7638;49.760;8.646;2023-09-07T05:04:49;2.60;;;2.30;;
15077;SDS011;7638;49.760;8.646;2023-09-07T05:07:15;4.40;;;2.57;;
15077;SDS011;7638;49.760;8.646;2023-09-07T05:09:42;6.60;;;2.73;;
15077;SDS011;7638;49.760;8.646;2023-09-07T05:12:08;2.63;;;2.37;;
15077;SDS011;7638;49.760;8.646;2023-09-07T05:14:35;2.80;;;2.40;;
15077;SDS011;7638;49.760;8.646;2023-09-07T05:17:01;3.07;;;2.77;;
15077;SDS011;7638;49.760;8.646;2023-09-07T05:19:27;2.63;;;2.43;;
15077;SDS011;7638;49.760;8.646;2023-09-07T05:21:53;4.33;;;2.33;;
15077;SDS011;7638;49.760;8.646;2023-09-07T05:24:19;3.50;;;2.70;;
15077;SDS011;7638;49.760;8.646;2023-09-07T05:26:45;4.07;;;2.50;;
15077;SDS011;7638;49.760;8.646;2023-09-07T05:29:11;4.27;;;2.73;;
15077;SDS011;7638;49.760;8.646;2023-09-07T05:31:38;2.53;;;2.27;;
15077;SDS011;7638;49.760;8.646;2023-09-07T05:34:04;3.03;;;2.70;;
15077;SDS011;7638;49.760;8.646;2023-09-07T05:36:30;3.67;;;2.50;;
15077;SDS011;7638;49.760;8.646;2023-09-07T05:38:56;2.83;;;2.53;;
15077;SDS011;7638;49.760;8.646;2023-09-07T05:41:22;3.63;;;2.33;;
15077;SDS011;7638;49.760;8.646;2023-09-07T05:43:48;3.87;;;2.53;;
15077;SDS011;7638;49.760;8.646;2023-09-07T05:46:14;3.30;;;2.97;;
15077;SDS011;7638;49.760;8.646;2023-09-07T05:48:40;3.03;;;2.67;;
15077;SDS011;7638;49.760;8.646;2023-09-07T05:51:06;3.57;;;2.40;;
15077;SDS011;7638;49.760;8.646;2023-09-07T05:53:32;3.00;;;2.80;;
15077;SDS011;7638;49.760;8.646;2023-09-07T05:55:58;3.50;;;2.90;;
15077;SDS011;7638;49.760;8.646;2023-09-07T05:58:24;4.17;;;2.83;;
15077;SDS011;7638;49.760;8.646;2023-09-07T06:00:50;3.50;;;2.57;;
15077;SDS011;7638;49.760;8.646;2023-09-07T06:03:19;3.43;;;2.73;;
15077;SDS011;7638;49.760;8.646;2023-09-07T06:05:45;3.10;;;2.80;;
15077;SDS011;7638;49.760;8.646;2023-09-07T06:08:11;3.10;;;2.73;;
15077;SDS011;7638;49.760;8.646;2023-09-07T06:10:37;3.37;;;2.70;;
15077;SDS011;7638;49.760;8.646;2023-09-07T06:13:03;3.77;;;3.37;;
15077;SDS011;7638;49.760;8.646;2023-09-07T06:15:29;6.60;;;2.47;;
15077;SDS011;7638;49.760;8.646;2023-09-07T06:17:55;8.27;;;2.70;;
15077;SDS011;7638;49.760;8.646;2023-09-07T06:20:22;2.67;;;2.47;;
15077;SDS011;7638;49.760;8.646;2023-09-07T06:22:48;3.33;;;2.73;;
15077;SDS011;7638;49.760;8.646;2023-09-07T06:25:14;3.27;;;2.73;;
15077;SDS011;7638;49.760;8.646;2023-09-07T06:27:40;3.17;;;2.57;;
15077;SDS011;7638;49.760;8.646;2023-09-07T06:30:06;3.37;;;2.83;;
15077;SDS011;7638;49.760;8.646;2023-09-07T06:32:32;3.40;;;3.10;;
15077;SDS011;7638;49.760;8.646;2023-09-07T06:34:58;3.47;;;2.77;;
15077;SDS011;7638;49.760;8.646;2023-09-07T06:37:24;7.27;;;2.70;;
15077;SDS011;7638;49.760;8.646;2023-09-07T06:39:50;3.40;;;2.70;;
15077;SDS011;7638;49.760;8.646;2023-09-07T06:42:16;4.60;;;3.63;;
15077;SDS011;7638;49.760;8.646;2023-09-07T06:44:43;6.37;;;2.83;;
15077;SDS011;7638;49.760;8.646;2023-09-07T06:47:10;4.10;;;3.47;;
15077;SDS011;7638;49.760;8.646;2023-09-07T06:49:37;6.07;;;3.67;;
15077;SDS011;7638;49.760;8.646;2023-09-07T06:52:03;3.80;;;2.87;;
15077;SDS011;7638;49.760;8.646;2023-09-07T06:54:29;3.93;;;2.97;;
15077;SDS011;7638;49.760;8.646;2023-09-07T06:56:55;3.30;;;3.00;;
15077;SDS011;7638;49.760;8.646;2023-09-07T06:59:21;3.57;;;3.27;;
15077;SDS011;7638;49.760;8.646;2023-09-07T07:01:50;3.30;;;3.00;;
15077;SDS011;7638;49.760;8.646;2023-09-07T07:04:16;7.67;;;3.73;;
15077;SDS011;7638;49.760;8.646;2023-09-07T07:06:42;3.33;;;2.73;;
15077;SDS011;7638;49.760;8.646;2023-09-07T07:09:08;4.80;;;3.00;;
15077;SDS011;7638;49.760;8.646;2023-09-07T07:11:35;4.23;;;3.13;;
15077;SDS011;7638;49.760;8.646;2023-09-07T07:14:04;3.30;;;3.00;;
15077;SDS011;7638;49.760;8.646;2023-09-07T07:16:30;3.13;;;2.83;;
15077;SDS011;7638;49.760;8.646;2023-09-07T07:18:56;3.97;;;2.80;;
15077;SDS011;7638;49.760;8.646;2023-09-07T07:21:22;4.43;;;3.20;;
15077;SDS011;7638;49.760;8.646;2023-09-07T07:23:47;9.57;;;3.20;;
15077;SDS011;7638;49.760;8.646;2023-09-07T07:26:13;3.50;;;3.20;;
15077;SDS011;7638;49.760;8.646;2023-09-07T07:28:39;4.07;;;3.10;;
15077;SDS011;7638;49.760;8.646;2023-09-07T07:31:09;3.60;;;2.90;;
15077;SDS011;7638;49.760;8.646;2023-09-07T07:33:35;4.40;;;3.40;;
15077;SDS011;7638;49.760;8.646;2023-09-07T07:36:02;3.97;;;3.57;;
15077;SDS011;7638;49.760;8.646;2023-09-07T07:38:28;6.43;;;3.80;;
15077;SDS011;7638;49.760;8.646;2023-09-07T07:40:54;6.83;;;3.00;;
15077;SDS011;7638;49.760;8.646;2023-09-07T07:43:20;7.07;;;3.13;;
15077;SDS011;7638;49.760;8.646;2023-09-07T07:45:47;4.57;;;3.67;;
15077;SDS011;7638;49.760;8.646;2023-09-07T07:48:13;3.63;;;3.20;;
15077;SDS011;7638;49.760;8.646;2023-09-07T07:50:39;4.97;;;3.17;;
15077;SDS011;7638;49.760;8.646;2023-09-07T07:53:08;3.97;;;3.57;;
15077;SDS011;7638;49.760;8.646;2023-09-07T07:55:34;3.00;;;2.70;;
15077;SDS011;7638;49.760;8.646;2023-09-07T07:58:04;3.30;;;3.00;;
15077;SDS011;7638;49.760;8.646;2023-09-07T08:00:30;3.97;;;3.47;;
15077;SDS011;7638;49.760;8.646;2023-09-07T08:03:03;6.20;;;3.43;;
15077;SDS011;7638;49.760;8.646;2023-09-07T08:05:31;5.57;;;3.43;;
15077;SDS011;7638;49.760;8.646;2023-09-07T08:07:57;5.57;;;3.40;;
15077;SDS011;7638;49.760;8.646;2023-09-07T08:10:23;4.27;;;3.77;;
15077;SDS011;7638;49.760;8.646;2023-09-07T08:12:53;3.63;;;3.23;;
15077;SDS011;7638;49.760;8.646;2023-09-07T08:15:19;3.93;;;3.43;;
15077;SDS011;7638;49.760;8.646;2023-09-07T08:17:47;9.43;;;3.40;;
15077;SDS011;7638;49.760;8.646;2023-09-07T08:20:13;4.40;;;3.40;;
15077;SDS011;7638;49.760;8.646;2023-09-07T08:22:40;4.60;;;3.70;;
15077;SDS011;7638;49.760;8.646;2023-09-07T08:25:07;5.47;;;3.77;;
15077;SDS011;7638;49.760;8.646;2023-09-07T08:27:34;3.23;;;2.93;;
15077;SDS011;7638;49.760;8.646;2023-09-07T08:30:00;6.30;;;3.50;;
15077;SDS011;7638;49.760;8.646;2023-09-07T08:32:26;5.23;;;3.47;;
15077;SDS011;7638;49.760;8.646;2023-09-07T08:34:52;8.67;;;3.57;;
15077;SDS011;7638;49.760;8.646;2023-09-07T08:37:21;3.40;;;3.07;;
15077;SDS011;7638;49.760;8.646;2023-09-07T08:39:49;5.00;;;3.40;;
15077;SDS011;7638;49.760;8.646;2023-09-07T08:42:15;7.43;;;3.70;;
15077;SDS011;7638;49.760;8.646;2023-09-07T08:44:41;4.07;;;3.67;;
15077;SDS011;7638;49.760;8.646;2023-09-07T08:47:08;4.73;;;3.73;;
15077;SDS011;7638;49.760;8.646;2023-09-07T08:49:34;3.80;;;3.40;;
15077;SDS011;7638;49.760;8.646;2023-09-07T08:52:02;4.37;;;3.60;;
15077;SDS011;7638;49.760;8.646;2023-09-07T08:54:29;3.90;;;3.27;;
15077;SDS011;7638;49.760;8.646;2023-09-07T08:56:56;3.40;;;3.10;;
15077;SDS011;7638;49.760;8.646;2023-09-07T08:59:22;5.47;;;2.90;;
15077;SDS011;7638;49.760;8.646;2023-09-07T09:01:48;4.73;;;3.40;;
15077;SDS011;7638;49.760;8.646;2023-09-07T09:04:14;4.77;;;3.43;;
15077;SDS011;7638;49.760;8.646;2023-09-07T09:06:41;3.93;;;3.30;;
15077;SDS011;7638;49.760;8.646;2023-09-07T09:09:07;4.97;;;3.27;;
15077;SDS011;7638;49.760;8.646;2023-09-07T09:11:32;7.20;;;3.30;;
15077;SDS011;7638;49.760;8.646;2023-09-07T09:13:59;5.03;;;3.97;;
15077;SDS011;7638;49.760;8.646;2023-09-07T09:16:25;4.73;;;3.63;;
15077;SDS011;7638;49.760;8.646;2023-09-07T09:18:55;3.37;;;3.07;;
15077;SDS011;7638;49.760;8.646;2023-09-07T09:21:22;3.53;;;3.23;;
15077;SDS011;7638;49.760;8.646;2023-09-07T09:23:49;3.93;;;3.13;;
15077;SDS011;7638;49.760;8.646;2023-09-07T09:26:15;4.40;;;3.30;;
15077;SDS011;7638;49.760;8.646;2023-09-07T09:28:41;3.70;;;3.40;;
15077;SDS011;7638;49.760;8.646;2023-09-07T09:31:10;3.53;;;3.10;;
15077;SDS011;7638;49.760;8.646;2023-09-07T09:33:42;4.30;;;3.27;;
15077;SDS011;7638;49.760;8.646;2023-09-07T09:36:08;3.83;;;3.43;;
15077;SDS011;7638;49.760;8.646;2023-09-07T09:38:35;3.93;;;3.27;;
15077;SDS011;7638;49.760;8.646;2023-09-07T09:41:01;3.33;;;3.03;;
15077;SDS011;7638;49.760;8.646;2023-09-07T09:43:30;6.63;;;3.50;;
15077;SDS011;7638;49.760;8.646;2023-09-07T09:45:56;5.90;;;3.50;;
15077;SDS011;7638;49.760;8.646;2023-09-07T09:48:23;4.30;;;3.43;;
15077;SDS011;7638;49.760;8.646;2023-09-07T09:50:49;6.87;;;3.23;;
15077;SDS011;7638;49.760;8.646;2023-09-07T09:53:16;3.57;;;3.23;;
15077;SDS011;7638;49.760;8.646;2023-09-07T09:55:46;4.30;;;3.90;;
15077;SDS011;7638;49.760;8.646;2023-09-07T09:58:13;4.63;;;3.50;;
15077;SDS011;7638;49.760;8.646;2023-09-07T10:00:43;5.50;;;3.57;;
15077;SDS011;7638;49.760;8.646;2023-09-07T10:06:11;5.10;;;3.60;;
15077;SDS011;7638;49.760;8.646;2023-09-07T10:08:38;8.20;;;3.80;;
15077;SDS011;7638;49.760;8.646;2023-09-07T10:11:08;5.13;;;3.20;;
15077;SDS011;7638;49.760;8.646;2023-09-07T10:13:34;3.37;;;3.07;;
15077;SDS011;7638;49.760;8.646;2023-09-07T10:16:01;4.43;;;3.40;;
15077;SDS011;7638;49.760;8.646;2023-09-07T10:18:33;6.43;;;3.67;;
15077;SDS011;7638;49.760;8.646;2023-09-07T10:20:59;6.03;;;3.93;;
15077;SDS011;7638;49.760;8.646;2023-09-07T10:23:40;5.13;;;3.57;;
15077;SDS011;7638;49.760;8.646;2023-09-07T10:26:16;4.13;;;3.73;;
15077;SDS011;7638;49.760;8.646;2023-09-07T10:28:43;5.13;;;3.97;;
15077;SDS011;7638;49.760;8.646;2023-09-07T10:31:19;4.93;;;3.60;;
15077;SDS011;7638;49.760;8.646;2023-09-07T10:33:46;5.37;;;3.47;;
15077;SDS011;7638;49.760;8.646;2023-09-07T10:36:23;6.70;;;3.37;;
15077;SDS011;7638;49.760;8.646;2023-09-07T10:38:50;3.43;;;3.10;;
15077;SDS011;7638;49.760;8.646;2023-09-07T10:41:19;4.20;;;3.43;;
15077;SDS011;7638;49.760;8.646;2023-09-07T10:43:53;4.23;;;2.93;;
15077;SDS011;7638;49.760;8.646;2023-09-07T10:46:20;4.00;;;3.60;;
15077;SDS011;7638;49.760;8.646;2023-09-07T10:48:53;4.63;;;3.83;;
15077;SDS011;7638;49.760;8.646;2023-09-07T10:51:21;6.30;;;3.60;;
15077;SDS011;7638;49.760;8.646;2023-09-07T10:53:48;4.60;;;3.07;;
15077;SDS011;7638;49.760;8.646;2023-09-07T10:56:14;3.77;;;3.40;;
15077;SDS011;7638;49.760;8.646;2023-09-07T10:58:40;4.30;;;3.33;;
15077;SDS011;7638;49.760;8.646;2023-09-07T11:01:09;3.40;;;3.10;;
15077;SDS011;7638;49.760;8.646;2023-09-07T11:03:36;8.90;;;3.47;;
15077;SDS011;7638;49.760;8.646;2023-09-07T11:06:10;3.07;;;2.77;;
15077;SDS011;7638;49.760;8.646;2023-09-07T11:08:36;4.63;;;3.27;;
15077;SDS011;7638;49.760;8.646;2023-09-07T11:11:02;5.80;;;3.07;;
15077;SDS011;7638;49.760;8.646;2023-09-07T11:13:28;4.00;;;2.90;;
15077;SDS011;7638;49.760;8.646;2023-09-07T11:15:58;4.00;;;3.33;;
15077;SDS011;7638;49.760;8.646;2023-09-07T11:18:25;4.23;;;3.47;;
15077;SDS011;7638;49.760;8.646;2023-09-07T11:20:51;3.63;;;3.20;;
15077;SDS011;7638;49.760;8.646;2023-09-07T11:23:18;4.93;;;2.97;;
15077;SDS011;7638;49.760;8.646;2023-09-07T11:25:46;3.43;;;3.13;;
15077;SDS011;7638;49.760;8.646;2023-09-07T11:28:12;4.40;;;3.07;;
15077;SDS011;7638;49.760;8.646;2023-09-07T11:30:51;4.63;;;3.23;;
15077;SDS011;7638;49.760;8.646;2023-09-07T11:33:18;3.23;;;2.93;;
15077;SDS011;7638;49.760;8.646;2023-09-07T11:35:44;3.47;;;3.03;;
15077;SDS011;7638;49.760;8.646;2023-09-07T11:38:12;5.23;;;3.17;;
15077;SDS011;7638;49.760;8.646;2023-09-07T11:40:38;5.83;;;2.60;;
15077;SDS011;7638;49.760;8.646;2023-09-07T11:43:04;3.43;;;2.77;;
15077;SDS011;7638;49.760;8.646;2023-09-07T11:45:30;4.83;;;2.83;;
15077;SDS011;7638;49.760;8.646;2023-09-07T11:47:57;5.53;;;2.60;;
15077;SDS011;7638;49.760;8.646;2023-09-07T11:50:23;3.57;;;2.77;;
15077;SDS011;7638;49.760;8.646;2023-09-07T11:52:50;3.63;;;3.20;;
15077;SDS011;7638;49.760;8.646;2023-09-07T11:55:16;3.07;;;2.77;;
15077;SDS011;7638;49.760;8.646;2023-09-07T11:57:42;3.70;;;3.13;;
15077;SDS011;7638;49.760;8.646;2023-09-07T12:00:09;4.23;;;2.90;;
15077;SDS011;7638;49.760;8.646;2023-09-07T12:02:36;5.60;;;3.30;;
15077;SDS011;7638;49.760;8.646;2023-09-07T12:05:03;5.37;;;3.07;;
15077;SDS011;7638;49.760;8.646;2023-09-07T12:07:29;5.93;;;2.80;;
15077;SDS011;7638;49.760;8.646;2023-09-07T12:09:56;3.80;;;3.27;;
15077;SDS011;7638;49.760;8.646;2023-09-07T12:12:23;3.70;;;3.40;;
15077;SDS011;7638;49.760;8.646;2023-09-07T12:14:49;3.20;;;2.77;;
15077;SDS011;7638;49.760;8.646;2023-09-07T12:17:15;3.43;;;3.00;;
15077;SDS011;7638;49.760;8.646;2023-09-07T12:19:41;3.97;;;3.40;;
15077;SDS011;7638;49.760;8.646;2023-09-07T12:22:10;3.40;;;3.10;;
15077;SDS011;7638;49.760;8.646;2023-09-07T12:24:36;7.07;;;3.07;;
15077;SDS011;7638;49.760;8.646;2023-09-07T12:27:02;3.77;;;2.90;;
15077;SDS011;7638;49.760;8.646;2023-09-07T12:29:29;3.10;;;2.80;;
15077;SDS011;7638;49.760;8.646;2023-09-07T12:31:55;4.47;;;2.83;;
15077;SDS011;7638;49.760;8.646;2023-09-07T12:34:22;4.57;;;3.00;;
15077;SDS011;7638;49.760;8.646;2023-09-07T12:36:48;3.10;;;2.70;;
15077;SDS011;7638;49.760;8.646;2023-09-07T12:39:14;3.67;;;3.33;;
15077;SDS011;7638;49.760;8.646;2023-09-07T12:41:40;3.30;;;3.00;;
15077;SDS011;7638;49.760;8.646;2023-09-07T12:44:06;4.40;;;2.83;;
15077;SDS011;7638;49.760;8.646;2023-09-07T12:46:32;4.30;;;3.30;;
15077;SDS011;7638;49.760;8.646;2023-09-07T12:48:58;3.33;;;3.00;;
15077;SDS011;7638;49.760;8.646;2023-09-07T12:51:24;3.60;;;3.00;;
15077;SDS011;7638;49.760;8.646;2023-09-07T12:53:50;3.23;;;2.80;;
15077;SDS011;7638;49.760;8.646;2023-09-07T12:56:16;3.53;;;2.50;;
15077;SDS011;7638;49.760;8.646;2023-09-07T12:58:43;4.63;;;3.40;;
15077;SDS011;7638;49.760;8.646;2023-09-07T13:01:09;3.07;;;2.77;;
15077;SDS011;7638;49.760;8.646;2023-09-07T13:03:37;5.03;;;3.00;;
15077;SDS011;7638;49.760;8.646;2023-09-07T13:06:03;5.90;;;3.40;;
15077;SDS011;7638;49.760;8.646;2023-09-07T13:08:29;3.17;;;2.80;;
15077;SDS011;7638;49.760;8.646;2023-09-07T13:10:55;5.60;;;3.17;;
15077;SDS011;7638;49.760;8.646;2023-09-07T13:13:24;3.60;;;3.03;;
15077;SDS011;7638;49.760;8.646;2023-09-07T13:15:54;5.57;;;3.33;;
15077;SDS011;7638;49.760;8.646;2023-09-07T13:18:20;3.20;;;2.90;;
15077;SDS011;7638;49.760;8.646;2023-09-07T13:20:47;13.53;;;3.50;;
15077;SDS011;7638;49.760;8.646;2023-09-07T13:23:15;7.33;;;3.60;;
15077;SDS011;7638;49.760;8.646;2023-09-07T13:25:41;5.53;;;2.97;;
15077;SDS011;7638;49.760;8.646;2023-09-07T13:28:07;5.60;;;3.37;;
15077;SDS011;7638;49.760;8.646;2023-09-07T13:30:33;5.03;;;2.93;;
15077;SDS011;7638;49.760;8.646;2023-09-07T13:32:59;7.30;;;3.10;;
15077;SDS011;7638;49.760;8.646;2023-09-07T13:35:25;4.70;;;3.00;;
15077;SDS011;7638;49.760;8.646;2023-09-07T13:37:51;4.30;;;3.37;;
15077;SDS011;7638;49.760;8.646;2023-09-07T13:40:17;3.23;;;2.90;;
15077;SDS011;7638;49.760;8.646;2023-09-07T13:42:48;3.10;;;2.80;;
15077;SDS011;7638;49.760;8.646;2023-09-07T13:45:14;3.00;;;2.77;;
15077;SDS011;7638;49.760;8.646;2023-09-07T13:47:40;3.73;;;3.13;;
15077;SDS011;7638;49.760;8.646;2023-09-07T13:50:07;4.33;;;2.73;;
15077;SDS011;7638;49.760;8.646;2023-09-07T13:52:33;3.43;;;2.93;;
15077;SDS011;7638;49.760;8.646;2023-09-07T13:54:59;5.43;;;2.97;;
15077;SDS011;7638;49.760;8.646;2023-09-07T13:57:25;4.80;;;2.90;;
15077;SDS011;7638;49.760;8.646;2023-09-07T13:59:51;3.43;;;3.13;;
15077;SDS011;7638;49.760;8.646;2023-09-07T14:02:17;3.10;;;2.80;;
15077;SDS011;7638;49.760;8.646;2023-09-07T14:04:43;5.87;;;2.70;;
15077;SDS011;7638;49.760;8.646;2023-09-07T14:07:09;6.37;;;3.17;;
15077;SDS011;7638;49.760;8.646;2023-09-07T14:09:35;7.43;;;3.37;;
15077;SDS011;7638;49.760;8.646;2023-09-07T14:12:01;2.93;;;2.63;;
15077;SDS011;7638;49.760;8.646;2023-09-07T14:14:27;4.33;;;3.10;;
15077;SDS011;7638;49.760;8.646;2023-09-07T14:16:53;4.53;;;3.17;;
15077;SDS011;7638;49.760;8.646;2023-09-07T14:19:21;5.07;;;3.00;;
15077;SDS011;7638;49.760;8.646;2023-09-07T14:21:47;3.30;;;3.07;;
15077;SDS011;7638;49.760;8.646;2023-09-07T14:24:13;5.10;;;2.70;;
15077;SDS011;7638;49.760;8.646;2023-09-07T14:26:39;3.87;;;3.23;;
15077;SDS011;7638;49.760;8.646;2023-09-07T14:29:05;2.93;;;2.50;;
15077;SDS011;7638;49.760;8.646;2023-09-07T14:31:34;2.73;;;2.50;;
15077;SDS011;7638;49.760;8.646;2023-09-07T14:34:00;3.43;;;2.83;;
15077;SDS011;7638;49.760;8.646;2023-09-07T14:36:26;3.33;;;2.60;;
15077;SDS011;7638;49.760;8.646;2023-09-07T14:38:52;4.33;;;3.03;;
15077;SDS011;7638;49.760;8.646;2023-09-07T14:41:18;5.33;;;2.93;;
15077;SDS011;7638;49.760;8.646;2023-09-07T14:43:47;4.37;;;3.10;;
15077;SDS011;7638;49.760;8.646;2023-09-07T14:46:14;4.57;;;3.00;;
15077;SDS011;7638;49.760;8.646;2023-09-07T14:48:40;3.47;;;2.70;;
15077;SDS011;7638;49.760;8.646;2023-09-07T14:51:07;5.37;;;2.83;;
15077;SDS011;7638;49.760;8.646;2023-09-07T14:53:33;5.60;;;2.83;;
15077;SDS011;7638;49.760;8.646;2023-09-07T14:55:59;4.07;;;3.00;;
15077;SDS011;7638;49.760;8.646;2023-09-07T14:58:25;6.43;;;3.10;;
15077;SDS011;7638;49.760;8.646;2023-09-07T15:00:52;2.87;;;2.47;;